La Cienga, New Mexico
Current Conditions -  °F | °C
As of 6:53 PM on Friday 19 Dec 2014 (Local Time) from KSAF Reporting Station
Clear Clear  
Wind Chill: 22°   Ceiling: Unl
Heat Index: 31°   Visibility: 10mi
Dew Point: 20°   Wind: 10mph
Humidity: 64%   Direction: 360°N
Pressure: 30.14"   Gusts: NA
Location:  35.6483°N, 105.971°W
Report Text: KSAF 200153Z 36009KT 10SM CLR M01/M07 A3014 RMK AO2 SLP219 T10061067
Loading
Personal Weather Stations






























Interactive Weather Map New forecast layout! Learn more

10-Day Weather Forecast

Advertisements
Track Severe Weather on mobile